Time;durP1;ratioP1;P1;durP2;ratioP2;P2;SDS_P1;SDS_P2;PMS_P1;PMS_P2;Temp;Humidity;BMP_temperature;BMP_pressure;BME280_temperature;BME280_humidity;BME280_pressure;Samples;Min_cycle;Max_cycle;Signal;HPM_P1;HPM_P2
2021/08/08 00:01:44;;;;;;;7.30;2.28;;;;;;;;;;5016789;28;20626;-70
2021/08/08 00:04:10;;;;;;;3.20;1.80;;;;;;;;;;5018822;28;20269;-70
2021/08/08 00:06:35;;;;;;;3.45;2.00;;;;;;;;;;5016121;28;20197;-71
2021/08/08 00:09:00;;;;;;;6.95;2.00;;;;;;;;;;5021155;28;20186;-70
2021/08/08 00:11:26;;;;;;;5.38;2.00;;;;;;;;;;5014407;28;20180;-70
2021/08/08 00:13:51;;;;;;;4.00;2.00;;;;;;;;;;5018198;28;20304;-72
2021/08/08 00:16:16;;;;;;;6.75;2.20;;;;;;;;;;5013105;28;20211;-71
2021/08/08 00:18:42;;;;;;;4.38;2.08;;;;;;;;;;5020091;28;20255;-71
2021/08/08 00:21:07;;;;;;;2.60;2.00;;;;;;;;;;5021099;28;20205;-72
2021/08/08 00:23:33;;;;;;;6.50;1.73;;;;;;;;;;5016467;28;20255;-70
2021/08/08 00:25:58;;;;;;;4.88;2.45;;;;;;;;;;5019814;28;20198;-71
2021/08/08 00:28:24;;;;;;;5.80;2.53;;;;;;;;;;5015820;28;20182;-70
2021/08/08 00:30:49;;;;;;;3.42;2.00;;;;;;;;;;5023386;28;20186;-71
2021/08/08 00:33:14;;;;;;;5.28;2.80;;;;;;;;;;5007787;28;20198;-71
2021/08/08 00:35:42;;;;;;;3.42;2.13;;;;;;;;;;5013888;28;20195;-72
2021/08/08 00:38:09;;;;;;;3.13;2.03;;;;;;;;;;5016650;28;20541;-70
2021/08/08 00:40:35;;;;;;;4.43;2.35;;;;;;;;;;5024841;28;20210;-71
2021/08/08 00:43:00;;;;;;;4.20;2.03;;;;;;;;;;5028373;28;20178;-72
2021/08/08 00:45:26;;;;;;;5.25;2.20;;;;;;;;;;5017664;28;20634;-71
2021/08/08 00:47:51;;;;;;;6.28;2.40;;;;;;;;;;5017497;28;20201;-72
2021/08/08 00:50:17;;;;;;;5.88;2.40;;;;;;;;;;5013067;28;20186;-71
2021/08/08 00:52:43;;;;;;;3.83;2.08;;;;;;;;;;5019949;28;20217;-72
2021/08/08 00:55:10;;;;;;;8.00;2.97;;;;;;;;;;5007655;28;20190;-71
2021/08/08 00:57:35;;;;;;;6.78;2.95;;;;;;;;;;5026607;28;20194;-73
2021/08/08 01:00:06;;;;;;;4.82;2.92;;;;;;;;;;5011312;28;20238;-74
2021/08/08 01:02:38;;;;;;;6.97;3.03;;;;;;;;;;5024285;28;20178;-73
2021/08/08 01:05:05;;;;;;;3.92;2.75;;;;;;;;;;5013155;28;20654;-75
2021/08/08 01:07:38;;;;;;;7.55;2.85;;;;;;;;;;5024273;28;20210;-72
2021/08/08 01:10:04;;;;;;;8.55;3.53;;;;;;;;;;5011967;28;20186;-72
2021/08/08 01:12:31;;;;;;;5.13;3.33;;;;;;;;;;5023822;28;20193;-72
2021/08/08 01:14:58;;;;;;;5.25;3.45;;;;;;;;;;5018077;28;20666;-72
2021/08/08 01:17:24;;;;;;;4.75;3.08;;;;;;;;;;5025109;28;20194;-72
2021/08/08 01:19:58;;;;;;;7.32;3.90;;;;;;;;;;5021989;28;20696;-73
2021/08/08 01:22:30;;;;;;;6.22;3.35;;;;;;;;;;5017967;28;20581;-72
2021/08/08 01:25:00;;;;;;;5.80;3.75;;;;;;;;;;5023183;28;20182;-71
2021/08/08 01:27:27;;;;;;;6.70;3.97;;;;;;;;;;5025943;28;20286;-71
2021/08/08 01:29:54;;;;;;;8.00;4.60;;;;;;;;;;5023012;28;20183;-72
2021/08/08 01:32:20;;;;;;;9.93;4.57;;;;;;;;;;5017832;28;20650;-71
2021/08/08 01:34:47;;;;;;;5.80;4.35;;;;;;;;;;5021691;28;20193;-73
2021/08/08 01:37:15;;;;;;;7.32;4.68;;;;;;;;;;5018008;28;20182;-73
2021/08/08 01:39:43;;;;;;;6.70;4.97;;;;;;;;;;5021452;28;20637;-73
2021/08/08 01:42:09;;;;;;;5.75;5.00;;;;;;;;;;5020326;28;20187;-73
2021/08/08 01:44:46;;;;;;;7.43;5.38;;;;;;;;;;5025795;28;20197;-74
2021/08/08 01:47:13;;;;;;;9.93;6.15;;;;;;;;;;5009781;28;20182;-72
2021/08/08 01:49:43;;;;;;;7.60;5.30;;;;;;;;;;5022741;28;20194;-73
2021/08/08 01:52:09;;;;;;;6.78;5.07;;;;;;;;;;5011627;28;20194;-73
2021/08/08 01:54:35;;;;;;;7.72;5.47;;;;;;;;;;5024144;28;20239;-73
2021/08/08 01:57:01;;;;;;;7.18;5.72;;;;;;;;;;5023900;28;20228;-73
2021/08/08 01:59:27;;;;;;;9.57;5.65;;;;;;;;;;5019766;28;20228;-73
2021/08/08 02:01:52;;;;;;;9.60;5.85;;;;;;;;;;5025857;28;20202;-74
2021/08/08 02:04:27;;;;;;;6.55;5.75;;;;;;;;;;5033041;28;20218;-72
2021/08/08 02:06:53;;;;;;;6.93;5.80;;;;;;;;;;5020362;28;20697;-73
2021/08/08 02:09:19;;;;;;;8.02;5.85;;;;;;;;;;5013626;28;20272;-74
2021/08/08 02:11:44;;;;;;;8.65;6.10;;;;;;;;;;5025608;28;20589;-73
2021/08/08 02:14:11;;;;;;;9.25;5.97;;;;;;;;;;5017269;28;20186;-74
2021/08/08 02:16:37;;;;;;;9.48;5.53;;;;;;;;;;5024266;28;20191;-74
2021/08/08 02:19:02;;;;;;;10.30;6.07;;;;;;;;;;5021586;28;20191;-75
2021/08/08 02:21:28;;;;;;;8.93;6.18;;;;;;;;;;5024750;28;20210;-72
2021/08/08 02:23:53;;;;;;;10.63;5.82;;;;;;;;;;5020625;28;20722;-73
2021/08/08 02:26:19;;;;;;;9.75;6.80;;;;;;;;;;5024652;28;20199;-75
2021/08/08 02:28:44;;;;;;;6.38;5.35;;;;;;;;;;5018932;28;20751;-75
2021/08/08 02:31:13;;;;;;;6.35;5.72;;;;;;;;;;5021519;28;20228;-74
2021/08/08 02:33:38;;;;;;;7.80;6.90;;;;;;;;;;5024066;28;20590;-76
2021/08/08 02:36:04;;;;;;;10.82;6.70;;;;;;;;;;5016203;28;20193;-75
2021/08/08 02:38:29;;;;;;;8.98;6.22;;;;;;;;;;5025124;28;20212;-72
2021/08/08 02:40:55;;;;;;;9.90;6.88;;;;;;;;;;5014239;28;20214;-74
2021/08/08 02:43:20;;;;;;;9.35;6.43;;;;;;;;;;5018186;28;20191;-76
2021/08/08 02:45:49;;;;;;;9.05;5.93;;;;;;;;;;5014230;28;20277;-73
2021/08/08 02:48:15;;;;;;;9.75;6.40;;;;;;;;;;5024560;28;20185;-71
2021/08/08 02:50:41;;;;;;;8.55;6.43;;;;;;;;;;5015764;28;20185;-76
2021/08/08 02:53:06;;;;;;;9.70;6.78;;;;;;;;;;5026348;28;20552;-72
2021/08/08 02:55:32;;;;;;;10.73;7.30;;;;;;;;;;5014643;28;20252;-74
2021/08/08 02:57:57;;;;;;;8.82;6.93;;;;;;;;;;5024434;28;20181;-74
2021/08/08 03:00:22;;;;;;;9.10;6.57;;;;;;;;;;5013858;28;20230;-74
2021/08/08 03:02:48;;;;;;;8.30;5.78;;;;;;;;;;5026256;28;20272;-73
2021/08/08 03:05:13;;;;;;;9.57;6.05;;;;;;;;;;5021612;28;20645;-73
2021/08/08 03:07:38;;;;;;;6.80;5.45;;;;;;;;;;5014298;28;20200;-73
2021/08/08 03:10:05;;;;;;;8.85;6.05;;;;;;;;;;5016374;28;20189;-75
2021/08/08 03:12:30;;;;;;;8.20;6.43;;;;;;;;;;5015524;28;20541;-73
2021/08/08 03:14:55;;;;;;;8.70;6.38;;;;;;;;;;5023500;28;20196;-74
2021/08/08 03:17:21;;;;;;;8.90;6.38;;;;;;;;;;5020921;28;20668;-72
2021/08/08 03:19:46;;;;;;;11.48;6.90;;;;;;;;;;5022961;28;20607;-74
2021/08/08 03:22:11;;;;;;;9.60;6.93;;;;;;;;;;5010513;28;20642;-73
2021/08/08 03:24:37;;;;;;;8.52;6.88;;;;;;;;;;5016990;28;20622;-75
2021/08/08 03:27:02;;;;;;;12.95;7.50;;;;;;;;;;5010055;28;20179;-73
2021/08/08 03:29:28;;;;;;;15.73;8.43;;;;;;;;;;5019509;28;20198;-72
2021/08/08 03:31:53;;;;;;;13.48;9.35;;;;;;;;;;5012346;28;20205;-72
2021/08/08 03:34:18;;;;;;;12.27;8.88;;;;;;;;;;5019317;28;20201;-75
2021/08/08 03:36:44;;;;;;;15.48;9.35;;;;;;;;;;5020292;28;20657;-73
2021/08/08 03:39:09;;;;;;;13.35;10.20;;;;;;;;;;5008669;28;21056;-72
2021/08/08 03:41:34;;;;;;;13.60;10.25;;;;;;;;;;5025213;28;20725;-71
2021/08/08 03:44:00;;;;;;;15.55;10.95;;;;;;;;;;5007550;28;20222;-73
2021/08/08 03:46:25;;;;;;;19.10;11.65;;;;;;;;;;5016919;28;20313;-75
2021/08/08 03:48:50;;;;;;;18.58;11.73;;;;;;;;;;5010908;28;20214;-73
2021/08/08 03:51:16;;;;;;;17.42;11.40;;;;;;;;;;5018094;28;20266;-75
2021/08/08 03:53:41;;;;;;;21.30;12.15;;;;;;;;;;5010573;28;20191;-74
2021/08/08 03:56:06;;;;;;;22.15;12.45;;;;;;;;;;5017919;28;20187;-76
2021/08/08 03:58:32;;;;;;;24.73;13.13;;;;;;;;;;5009243;28;20194;-73
2021/08/08 04:01:02;;;;;;;17.55;11.95;;;;;;;;;;5035221;28;20679;-75
2021/08/08 04:03:29;;;;;;;24.08;14.48;;;;;;;;;;5013736;28;20198;-72
2021/08/08 04:05:54;;;;;;;24.90;14.48;;;;;;;;;;5025334;28;20638;-75
2021/08/08 04:08:20;;;;;;;28.60;13.50;;;;;;;;;;5015418;28;20183;-74
2021/08/08 04:10:45;;;;;;;24.95;14.50;;;;;;;;;;5019080;28;20193;-77
2021/08/08 04:13:10;;;;;;;33.17;14.63;;;;;;;;;;5024877;28;20276;-74
2021/08/08 04:15:36;;;;;;;27.75;14.63;;;;;;;;;;5016891;28;20190;-74
2021/08/08 04:18:01;;;;;;;30.20;15.25;;;;;;;;;;5020078;28;20186;-74
2021/08/08 04:20:26;;;;;;;27.88;14.07;;;;;;;;;;5022884;28;20295;-75
2021/08/08 04:22:52;;;;;;;29.02;13.63;;;;;;;;;;5018683;28;20182;-73
2021/08/08 04:25:17;;;;;;;27.42;14.75;;;;;;;;;;5012795;28;20266;-75
2021/08/08 04:27:42;;;;;;;27.40;13.40;;;;;;;;;;5020125;28;20192;-73
2021/08/08 04:30:08;;;;;;;31.63;14.65;;;;;;;;;;5017823;28;20229;-73
2021/08/08 04:32:34;;;;;;;36.67;14.07;;;;;;;;;;5020487;28;21308;-72
2021/08/08 04:34:59;;;;;;;30.58;13.48;;;;;;;;;;5025647;28;20178;-74
2021/08/08 04:37:24;;;;;;;38.70;14.75;;;;;;;;;;5009878;28;20281;-73
2021/08/08 04:39:50;;;;;;;28.73;13.57;;;;;;;;;;5040304;28;20296;-74
2021/08/08 04:42:16;;;;;;;29.98;13.10;;;;;;;;;;5011232;28;20225;-75
2021/08/08 04:44:41;;;;;;;32.38;13.75;;;;;;;;;;5024847;28;20178;-74
2021/08/08 04:47:06;;;;;;;31.27;12.05;;;;;;;;;;5019178;28;20190;-74
2021/08/08 04:49:32;;;;;;;30.77;12.95;;;;;;;;;;5043308;28;20656;-75
2021/08/08 04:51:59;;;;;;;28.48;12.00;;;;;;;;;;5016433;28;20524;-74
2021/08/08 04:54:24;;;;;;;35.85;13.00;;;;;;;;;;5030624;28;20190;-73
2021/08/08 04:56:49;;;;;;;30.80;12.63;;;;;;;;;;5015665;28;20201;-73
2021/08/08 04:59:15;;;;;;;25.48;10.93;;;;;;;;;;5026088;28;20556;-73
2021/08/08 05:01:40;;;;;;;32.05;12.18;;;;;;;;;;5030518;28;20296;-73
2021/08/08 05:04:06;;;;;;;29.80;11.32;;;;;;;;;;5027600;28;20182;-74
2021/08/08 05:06:32;;;;;;;32.03;10.98;;;;;;;;;;5020519;28;20680;-72
2021/08/08 05:08:58;;;;;;;29.13;11.77;;;;;;;;;;5016149;28;20199;-73
2021/08/08 05:11:23;;;;;;;32.85;10.98;;;;;;;;;;5024931;28;20190;-76
2021/08/08 05:13:49;;;;;;;21.75;10.68;;;;;;;;;;5020425;28;20209;-72
2021/08/08 05:16:14;;;;;;;34.47;11.23;;;;;;;;;;4325771;28;10000713;-72
2021/08/08 05:18:39;;;;;;;22.83;11.18;;;;;;;;;;5011742;28;20190;-75
2021/08/08 05:21:05;;;;;;;22.23;10.23;;;;;;;;;;5018432;28;20214;-75
2021/08/08 05:23:30;;;;;;;20.67;10.27;;;;;;;;;;5018682;28;20186;-72
2021/08/08 05:25:59;;;;;;;30.30;10.75;;;;;;;;;;5022033;28;20197;-75
2021/08/08 05:28:25;;;;;;;25.02;9.82;;;;;;;;;;5001751;28;20304;-75
2021/08/08 05:30:50;;;;;;;27.70;10.57;;;;;;;;;;5022760;28;20194;-72
2021/08/08 05:33:16;;;;;;;25.45;10.48;;;;;;;;;;5019115;28;20555;-72
2021/08/08 05:35:41;;;;;;;23.80;10.02;;;;;;;;;;5022491;28;20199;-73
2021/08/08 05:38:07;;;;;;;27.00;10.23;;;;;;;;;;5028206;28;20907;-77
2021/08/08 05:40:32;;;;;;;28.08;9.95;;;;;;;;;;5027285;28;20702;-75
2021/08/08 05:42:57;;;;;;;30.20;10.93;;;;;;;;;;5026081;28;20185;-72
2021/08/08 05:45:23;;;;;;;22.48;9.38;;;;;;;;;;5012409;28;20248;-73
2021/08/08 05:47:49;;;;;;;28.30;9.57;;;;;;;;;;5020285;28;20217;-72
2021/08/08 05:50:14;;;;;;;24.30;8.60;;;;;;;;;;5010179;28;20190;-72
2021/08/08 05:52:39;;;;;;;21.08;8.30;;;;;;;;;;5029168;28;20183;-74
2021/08/08 05:55:05;;;;;;;22.38;8.95;;;;;;;;;;5014700;28;20204;-73
2021/08/08 05:57:31;;;;;;;25.95;8.68;;;;;;;;;;5019898;28;20404;-72
2021/08/08 05:59:56;;;;;;;22.33;8.02;;;;;;;;;;5012139;28;20246;-72
2021/08/08 06:02:21;;;;;;;25.60;8.45;;;;;;;;;;5019649;28;20209;-72
2021/08/08 06:04:49;;;;;;;21.02;8.10;;;;;;;;;;5008647;28;20297;-73
2021/08/08 06:07:18;;;;;;;20.67;8.20;;;;;;;;;;5014772;28;20361;-76
2021/08/08 06:09:43;;;;;;;20.30;9.13;;;;;;;;;;5019236;28;20582;-71
2021/08/08 06:12:09;;;;;;;26.23;8.73;;;;;;;;;;5008769;28;20194;-72
2021/08/08 06:14:34;;;;;;;23.05;8.35;;;;;;;;;;5015893;28;20230;-76
2021/08/08 06:16:59;;;;;;;25.23;8.55;;;;;;;;;;5009970;28;20250;-72
2021/08/08 06:19:25;;;;;;;22.45;8.20;;;;;;;;;;5014784;28;20191;-71
2021/08/08 06:21:50;;;;;;;20.10;7.32;;;;;;;;;;5009517;28;20217;-74
2021/08/08 06:24:16;;;;;;;18.33;8.70;;;;;;;;;;5016536;28;20201;-73
2021/08/08 06:26:41;;;;;;;22.45;8.68;;;;;;;;;;5008376;28;20187;-73
2021/08/08 06:29:06;;;;;;;23.23;8.68;;;;;;;;;;5023616;28;20272;-76
2021/08/08 06:31:32;;;;;;;23.08;9.02;;;;;;;;;;5013238;28;20174;-74
2021/08/08 06:33:59;;;;;;;20.95;7.97;;;;;;;;;;5049873;28;20193;-74
2021/08/08 06:36:24;;;;;;;19.17;8.75;;;;;;;;;;5009544;28;20712;-73
2021/08/08 06:38:51;;;;;;;22.00;9.32;;;;;;;;;;5016891;28;20260;-73
2021/08/08 06:41:17;;;;;;;28.80;9.10;;;;;;;;;;5021365;28;20674;-73
2021/08/08 06:43:42;;;;;;;29.40;8.45;;;;;;;;;;5014567;28;20185;-72
2021/08/08 06:46:08;;;;;;;23.05;8.27;;;;;;;;;;5021957;28;20182;-75
2021/08/08 06:48:34;;;;;;;23.30;7.80;;;;;;;;;;5011467;28;20193;-72
2021/08/08 06:51:01;;;;;;;18.67;7.72;;;;;;;;;;5016594;28;20175;-70
2021/08/08 06:53:26;;;;;;;18.67;6.45;;;;;;;;;;5013892;28;20179;-73
2021/08/08 06:55:51;;;;;;;16.50;6.30;;;;;;;;;;5020079;28;20537;-75
2021/08/08 06:58:17;;;;;;;17.77;6.60;;;;;;;;;;5009081;28;20188;-71
2021/08/08 07:00:42;;;;;;;19.02;6.13;;;;;;;;;;5016095;28;20307;-71
2021/08/08 07:03:07;;;;;;;20.05;6.32;;;;;;;;;;5010206;28;20194;-74
2021/08/08 07:05:33;;;;;;;14.02;6.63;;;;;;;;;;5025087;28;20284;-73
2021/08/08 07:07:58;;;;;;;19.85;6.75;;;;;;;;;;5011354;28;20181;-73
2021/08/08 07:10:23;;;;;;;23.20;7.60;;;;;;;;;;5012566;28;20186;-73
2021/08/08 07:12:49;;;;;;;17.45;6.22;;;;;;;;;;5015121;28;20706;-72
2021/08/08 07:15:14;;;;;;;14.07;6.57;;;;;;;;;;5006988;28;20195;-71
2021/08/08 07:17:39;;;;;;;19.30;6.43;;;;;;;;;;5015392;28;20190;-73
2021/08/08 07:20:06;;;;;;;16.10;6.28;;;;;;;;;;5008115;28;20202;-72
2021/08/08 07:22:31;;;;;;;23.10;6.90;;;;;;;;;;5021373;28;20265;-74
2021/08/08 07:24:57;;;;;;;20.00;5.75;;;;;;;;;;5011522;28;20617;-73
2021/08/08 07:27:22;;;;;;;23.25;6.95;;;;;;;;;;5015483;28;20182;-74
2021/08/08 07:29:47;;;;;;;22.83;7.22;;;;;;;;;;5014616;28;20191;-75
2021/08/08 07:32:13;;;;;;;26.23;7.40;;;;;;;;;;5016040;28;20663;-72
2021/08/08 07:34:38;;;;;;;23.38;7.93;;;;;;;;;;5011223;28;20204;-74
2021/08/08 07:37:03;;;;;;;22.00;7.50;;;;;;;;;;5024645;28;20198;-73
2021/08/08 07:39:31;;;;;;;25.38;8.23;;;;;;;;;;5016972;28;20183;-71
2021/08/08 07:41:56;;;;;;;23.50;7.65;;;;;;;;;;5021368;28;20206;-71
2021/08/08 07:44:22;;;;;;;22.60;8.27;;;;;;;;;;5022336;28;20205;-72
2021/08/08 07:46:47;;;;;;;27.02;8.57;;;;;;;;;;5014227;28;20186;-73
2021/08/08 07:49:12;;;;;;;18.90;7.95;;;;;;;;;;5021259;28;20634;-72
2021/08/08 07:51:38;;;;;;;21.75;8.02;;;;;;;;;;5011457;28;20193;-72
2021/08/08 07:54:03;;;;;;;27.45;8.50;;;;;;;;;;5021165;28;20283;-74
2021/08/08 07:56:29;;;;;;;18.17;7.68;;;;;;;;;;5013930;28;20198;-73
2021/08/08 07:58:54;;;;;;;24.73;8.68;;;;;;;;;;5018907;28;20225;-72
2021/08/08 08:01:21;;;;;;;17.75;8.20;;;;;;;;;;5013221;28;20210;-71
2021/08/08 08:03:46;;;;;;;27.98;9.10;;;;;;;;;;4330277;28;10000845;-72
2021/08/08 08:06:12;;;;;;;24.13;8.57;;;;;;;;;;5008879;28;20232;-72
2021/08/08 08:08:37;;;;;;;26.95;7.75;;;;;;;;;;5018227;28;20874;-72
2021/08/08 08:11:03;;;;;;;28.00;7.95;;;;;;;;;;5010720;28;20182;-75
2021/08/08 08:13:28;;;;;;;21.13;7.22;;;;;;;;;;5018791;28;20233;-71
2021/08/08 08:15:53;;;;;;;23.25;6.45;;;;;;;;;;5018497;28;20201;-72
2021/08/08 08:18:18;;;;;;;21.52;6.00;;;;;;;;;;5016852;28;20220;-75
2021/08/08 08:20:44;;;;;;;16.92;5.82;;;;;;;;;;5023027;28;20210;-74
2021/08/08 08:23:09;;;;;;;17.30;5.43;;;;;;;;;;5015092;28;20229;-74
2021/08/08 08:25:35;;;;;;;19.48;5.80;;;;;;;;;;5022737;28;20215;-74
2021/08/08 08:28:00;;;;;;;18.25;6.22;;;;;;;;;;5016441;28;20208;-72
2021/08/08 08:30:25;;;;;;;17.77;5.45;;;;;;;;;;5023251;28;20553;-74
2021/08/08 08:32:51;;;;;;;16.67;5.43;;;;;;;;;;5019269;28;20194;-73
2021/08/08 08:35:16;;;;;;;13.30;5.25;;;;;;;;;;5035941;28;20272;-72
2021/08/08 08:37:41;;;;;;;18.60;5.15;;;;;;;;;;5017675;28;20193;-76
2021/08/08 08:40:07;;;;;;;16.27;5.53;;;;;;;;;;5022213;28;20210;-74
2021/08/08 08:42:35;;;;;;;16.90;5.22;;;;;;;;;;5029967;28;20422;-72
2021/08/08 08:45:01;;;;;;;18.85;5.75;;;;;;;;;;5017496;28;20189;-75
2021/08/08 08:47:29;;;;;;;19.48;5.45;;;;;;;;;;5022637;28;20181;-74
2021/08/08 08:49:58;;;;;;;16.48;4.80;;;;;;;;;;5014965;28;20187;-70
2021/08/08 08:52:27;;;;;;;15.85;5.35;;;;;;;;;;5031329;28;20642;-72
2021/08/08 08:54:53;;;;;;;19.23;4.90;;;;;;;;;;5019427;28;20190;-71
2021/08/08 08:57:19;;;;;;;13.27;4.35;;;;;;;;;;5026012;28;20538;-73
2021/08/08 08:59:46;;;;;;;12.98;4.95;;;;;;;;;;5017504;28;20304;-71
2021/08/08 09:02:12;;;;;;;15.88;4.30;;;;;;;;;;5029657;28;20277;-73
2021/08/08 09:04:37;;;;;;;17.63;4.20;;;;;;;;;;5021263;28;20238;-75
2021/08/08 09:07:03;;;;;;;15.73;4.68;;;;;;;;;;5028775;28;20190;-71
2021/08/08 09:09:31;;;;;;;15.00;4.25;;;;;;;;;;5018718;28;20202;-72
2021/08/08 09:11:56;;;;;;;13.38;4.43;;;;;;;;;;5029745;28;20549;-72
2021/08/08 09:14:23;;;;;;;18.17;4.68;;;;;;;;;;5019723;28;20191;-73
2021/08/08 09:16:53;;;;;;;11.77;3.35;;;;;;;;;;5031438;28;20573;-73
2021/08/08 09:19:21;;;;;;;12.15;3.40;;;;;;;;;;5024530;28;20240;-71
2021/08/08 09:21:47;;;;;;;12.85;3.38;;;;;;;;;;5025477;28;20624;-71
2021/08/08 09:24:32;;;;;;;15.80;4.07;;;;;;;;;;5028108;28;20198;-71
2021/08/08 09:27:10;;;;;;;16.30;3.58;;;;;;;;;;5015577;28;20665;-69
2021/08/08 09:29:40;;;;;;;10.80;3.67;;;;;;;;;;5020642;28;20601;-70
2021/08/08 09:32:06;;;;;;;17.10;3.25;;;;;;;;;;5018165;28;20186;-69
2021/08/08 09:34:37;;;;;;;9.35;2.97;;;;;;;;;;5023863;28;20601;-75
2021/08/08 09:37:06;;;;;;;16.83;3.55;;;;;;;;;;5022588;28;20186;-73
2021/08/08 09:39:36;;;;;;;16.40;3.42;;;;;;;;;;5026225;28;20193;-73
2021/08/08 09:42:16;;;;;;;13.30;3.50;;;;;;;;;;5021832;28;20202;-73
2021/08/08 09:44:59;;;;;;;14.90;3.63;;;;;;;;;;5025825;28;20576;-70
2021/08/08 09:47:50;;;;;;;13.85;3.55;;;;;;;;;;5017801;28;20239;-69
2021/08/08 09:50:18;;;;;;;13.07;3.25;;;;;;;;;;5026138;28;20213;-74
2021/08/08 09:52:53;;;;;;;11.30;3.45;;;;;;;;;;5016021;28;20198;-72
2021/08/08 09:55:27;;;;;;;13.35;3.38;;;;;;;;;;5020786;28;20190;-75
2021/08/08 09:57:52;;;;;;;12.32;3.42;;;;;;;;;;5014629;28;20194;-71
2021/08/08 10:00:28;;;;;;;10.32;2.70;;;;;;;;;;5022031;28;20225;-73
2021/08/08 10:02:54;;;;;;;15.73;3.28;;;;;;;;;;5017511;28;20200;-72
2021/08/08 10:05:20;;;;;;;11.52;2.90;;;;;;;;;;5024899;28;20182;-72
2021/08/08 10:07:47;;;;;;;10.73;2.55;;;;;;;;;;5016557;28;20182;-70
2021/08/08 10:10:12;;;;;;;13.85;3.30;;;;;;;;;;5023222;28;20175;-74
2021/08/08 10:12:58;;;;;;;13.52;3.10;;;;;;;;;;5013243;28;20202;-72
2021/08/08 10:15:24;;;;;;;18.25;3.50;;;;;;;;;;5027573;28;20673;-71
2021/08/08 10:17:50;;;;;;;13.63;3.67;;;;;;;;;;5015025;28;20257;-72
2021/08/08 10:20:16;;;;;;;7.25;2.38;;;;;;;;;;5026955;28;21010;-72
2021/08/08 10:22:42;;;;;;;13.63;2.58;;;;;;;;;;5020337;28;20265;-73
2021/08/08 10:25:09;;;;;;;11.35;3.13;;;;;;;;;;5027457;28;20200;-73
2021/08/08 10:27:35;;;;;;;10.18;2.80;;;;;;;;;;5021608;28;20244;-71
2021/08/08 10:30:02;;;;;;;17.83;3.35;;;;;;;;;;5019823;28;20189;-74
2021/08/08 10:32:29;;;;;;;11.35;2.55;;;;;;;;;;5026101;28;20601;-72
2021/08/08 10:34:55;;;;;;;13.05;3.13;;;;;;;;;;5015870;28;20190;-74
2021/08/08 10:37:23;;;;;;;9.63;2.97;;;;;;;;;;5021471;28;20193;-69
2021/08/08 10:39:49;;;;;;;13.20;3.28;;;;;;;;;;5012848;28;20189;-69
2021/08/08 10:42:15;;;;;;;15.48;3.20;;;;;;;;;;5025332;28;20186;-70
2021/08/08 10:44:48;;;;;;;12.98;2.88;;;;;;;;;;5017188;28;20284;-68
2021/08/08 10:47:32;;;;;;;15.70;3.03;;;;;;;;;;5026380;28;20190;-71
2021/08/08 10:50:11;;;;;;;7.80;2.42;;;;;;;;;;5015898;28;20719;-71
2021/08/08 10:52:40;;;;;;;6.70;2.30;;;;;;;;;;5014664;28;20218;-72
2021/08/08 10:55:07;;;;;;;9.40;2.40;;;;;;;;;;5008835;28;20273;-71
2021/08/08 10:57:43;;;;;;;14.88;2.70;;;;;;;;;;4773272;28;10001399;-72
2021/08/08 11:00:14;;;;;;;10.65;2.55;;;;;;;;;;5009085;28;20792;-69
2021/08/08 11:02:39;;;;;;;11.85;2.22;;;;;;;;;;5020164;28;20209;-71
2021/08/08 11:05:16;;;;;;;15.70;2.90;;;;;;;;;;5012938;28;20562;-69
2021/08/08 11:07:44;;;;;;;10.95;2.53;;;;;;;;;;5020576;28;20202;-69
2021/08/08 11:10:11;;;;;;;10.43;2.70;;;;;;;;;;4993572;28;20194;-70
2021/08/08 11:12:39;;;;;;;8.63;2.45;;;;;;;;;;5017736;28;20663;-70
2021/08/08 11:15:09;;;;;;;13.73;2.72;;;;;;;;;;5022391;28;20281;-70
2021/08/08 11:17:35;;;;;;;13.65;2.75;;;;;;;;;;5012990;28;20259;-72
2021/08/08 11:20:01;;;;;;;11.45;2.80;;;;;;;;;;5022656;28;20174;-71
2021/08/08 11:22:27;;;;;;;10.23;2.67;;;;;;;;;;5015235;28;21284;-74
2021/08/08 11:25:04;;;;;;;12.65;2.85;;;;;;;;;;5023822;28;20186;-72
2021/08/08 11:27:32;;;;;;;12.23;3.22;;;;;;;;;;5014966;28;20194;-72
2021/08/08 11:29:58;;;;;;;8.15;2.55;;;;;;;;;;5023815;28;20557;-73
2021/08/08 11:32:31;;;;;;;8.60;2.22;;;;;;;;;;5012478;28;20186;-71
2021/08/08 11:35:05;;;;;;;11.45;2.92;;;;;;;;;;5020204;28;20550;-73
2021/08/08 11:37:39;;;;;;;13.00;3.03;;;;;;;;;;5013255;28;20662;-71
2021/08/08 11:40:16;;;;;;;11.82;3.13;;;;;;;;;;5018307;28;20217;-69
2021/08/08 11:42:41;;;;;;;15.13;2.70;;;;;;;;;;5009897;28;20185;-72
2021/08/08 11:45:07;;;;;;;7.90;2.45;;;;;;;;;;5018978;28;20192;-73
2021/08/08 11:47:33;;;;;;;9.75;2.78;;;;;;;;;;5013520;28;20239;-71
2021/08/08 11:49:58;;;;;;;13.15;2.58;;;;;;;;;;5019374;28;20183;-71
2021/08/08 11:52:23;;;;;;;10.15;2.35;;;;;;;;;;5014208;28;20661;-71
2021/08/08 11:55:00;;;;;;;9.63;2.42;;;;;;;;;;5015047;28;20703;-70
2021/08/08 11:57:28;;;;;;;9.55;2.40;;;;;;;;;;5009471;28;20193;-70
2021/08/08 11:59:54;;;;;;;10.52;2.50;;;;;;;;;;5012634;28;20317;-72
2021/08/08 12:02:20;;;;;;;6.95;2.20;;;;;;;;;;5013011;28;20202;-69
2021/08/08 12:04:46;;;;;;;8.30;2.33;;;;;;;;;;5008866;28;20721;-70
2021/08/08 12:07:11;;;;;;;8.68;2.40;;;;;;;;;;5016472;28;20194;-71
2021/08/08 12:09:44;;;;;;;8.13;2.35;;;;;;;;;;5010792;28;20194;-70
2021/08/08 12:12:09;;;;;;;8.50;2.50;;;;;;;;;;5023417;28;20190;-70
2021/08/08 12:14:36;;;;;;;7.72;2.67;;;;;;;;;;5012133;28;20213;-70
2021/08/08 12:17:14;;;;;;;8.18;2.75;;;;;;;;;;5025476;28;20186;-71
2021/08/08 12:19:51;;;;;;;8.02;2.35;;;;;;;;;;5029977;28;20189;-73
2021/08/08 12:22:27;;;;;;;10.05;2.15;;;;;;;;;;5036690;28;20547;-70
2021/08/08 12:25:11;;;;;;;8.93;2.88;;;;;;;;;;5011035;28;20224;-73
2021/08/08 12:27:41;;;;;;;7.40;2.28;;;;;;;;;;5016934;28;20677;-74
2021/08/08 12:30:10;;;;;;;10.45;2.90;;;;;;;;;;5010887;28;20194;-74
2021/08/08 12:32:38;;;;;;;11.50;2.38;;;;;;;;;;5020524;28;20189;-70
2021/08/08 12:35:15;;;;;;;9.27;2.67;;;;;;;;;;5009666;28;20268;-72
2021/08/08 12:37:43;;;;;;;7.78;2.40;;;;;;;;;;5021712;28;20580;-72
2021/08/08 12:40:15;;;;;;;7.93;2.63;;;;;;;;;;5028202;28;20197;-72
2021/08/08 12:42:42;;;;;;;9.75;2.60;;;;;;;;;;5021019;28;20201;-74
2021/08/08 12:45:12;;;;;;;10.10;2.65;;;;;;;;;;5015294;28;20610;-72
2021/08/08 12:47:40;;;;;;;11.90;2.60;;;;;;;;;;5019116;28;20237;-72
2021/08/08 12:50:20;;;;;;;5.80;2.40;;;;;;;;;;5020296;28;20235;-72
2021/08/08 12:52:47;;;;;;;7.10;2.25;;;;;;;;;;5021446;28;20206;-71
2021/08/08 12:55:13;;;;;;;10.93;3.03;;;;;;;;;;5019243;28;20273;-73
2021/08/08 12:57:39;;;;;;;8.98;2.40;;;;;;;;;;5007823;28;20665;-70
2021/08/08 13:00:07;;;;;;;9.65;2.28;;;;;;;;;;5019476;28;20234;-71
2021/08/08 13:02:32;;;;;;;7.68;2.75;;;;;;;;;;5029469;28;20195;-70
2021/08/08 13:04:58;;;;;;;9.05;2.83;;;;;;;;;;5023950;28;20325;-72
2021/08/08 13:07:23;;;;;;;9.38;2.67;;;;;;;;;;5013773;28;20191;-73
2021/08/08 13:09:49;;;;;;;8.15;2.20;;;;;;;;;;5024322;28;20596;-71
2021/08/08 13:12:16;;;;;;;8.73;2.55;;;;;;;;;;5014793;28;20204;-75
2021/08/08 13:14:42;;;;;;;8.13;2.28;;;;;;;;;;5022358;28;20186;-73
2021/08/08 13:17:07;;;;;;;7.95;2.53;;;;;;;;;;5014186;28;20194;-71
2021/08/08 13:19:33;;;;;;;9.88;2.20;;;;;;;;;;5024827;28;20179;-71
2021/08/08 13:21:58;;;;;;;7.55;2.05;;;;;;;;;;5019032;28;20209;-71
2021/08/08 13:24:23;;;;;;;11.38;2.35;;;;;;;;;;5022361;28;20198;-70
2021/08/08 13:26:49;;;;;;;9.75;2.10;;;;;;;;;;5023785;28;20197;-72
2021/08/08 13:29:14;;;;;;;7.50;2.28;;;;;;;;;;5013159;28;20186;-75
2021/08/08 13:31:39;;;;;;;8.32;1.90;;;;;;;;;;5020894;28;20542;-71
2021/08/08 13:34:05;;;;;;;14.80;2.97;;;;;;;;;;5015936;28;20205;-72
2021/08/08 13:36:30;;;;;;;8.43;2.10;;;;;;;;;;5025259;28;20195;-72
2021/08/08 13:38:55;;;;;;;9.10;2.10;;;;;;;;;;5013007;28;20313;-72
2021/08/08 13:41:21;;;;;;;9.60;2.10;;;;;;;;;;5025462;28;20576;-74
2021/08/08 13:43:46;;;;;;;12.10;2.35;;;;;;;;;;5022286;28;20201;-74
2021/08/08 13:46:12;;;;;;;8.85;2.10;;;;;;;;;;5017935;28;20182;-71
2021/08/08 13:48:38;;;;;;;8.80;2.17;;;;;;;;;;5014321;28;20186;-71
2021/08/08 13:51:03;;;;;;;9.50;2.40;;;;;;;;;;5024067;28;20214;-73
2021/08/08 13:53:29;;;;;;;5.60;1.80;;;;;;;;;;5013859;28;20205;-72
2021/08/08 13:55:54;;;;;;;6.40;1.98;;;;;;;;;;5020051;28;20286;-70
2021/08/08 13:58:19;;;;;;;6.63;1.90;;;;;;;;;;5020672;28;20214;-71
2021/08/08 14:00:45;;;;;;;5.63;2.22;;;;;;;;;;5010139;28;20646;-72
2021/08/08 14:03:17;;;;;;;6.45;2.10;;;;;;;;;;5017813;28;20190;-71
2021/08/08 14:05:46;;;;;;;6.95;1.95;;;;;;;;;;5010057;28;20309;-70
2021/08/08 14:08:12;;;;;;;5.43;1.80;;;;;;;;;;5020621;28;20277;-70
2021/08/08 14:10:37;;;;;;;7.63;1.60;;;;;;;;;;5017782;28;20201;-71
2021/08/08 14:13:03;;;;;;;6.55;1.73;;;;;;;;;;5022049;28;20254;-70
2021/08/08 14:15:29;;;;;;;5.45;1.55;;;;;;;;;;5017988;28;20200;-71
2021/08/08 14:17:55;;;;;;;4.57;1.30;;;;;;;;;;5018057;28;20186;-73
2021/08/08 14:20:21;;;;;;;6.53;1.63;;;;;;;;;;5015747;28;20560;-73
2021/08/08 14:22:46;;;;;;;6.38;1.50;;;;;;;;;;4330009;28;10000794;-70
2021/08/08 14:25:11;;;;;;;3.05;1.25;;;;;;;;;;5010672;28;20189;-70
2021/08/08 14:27:37;;;;;;;8.73;1.38;;;;;;;;;;5019985;28;20189;-70
2021/08/08 14:30:03;;;;;;;4.35;1.60;;;;;;;;;;5024571;28;20642;-71
2021/08/08 14:32:28;;;;;;;3.42;1.45;;;;;;;;;;5012575;28;20240;-74